createdAt,value
2023-02-16T00:00:31.138Z,-3.74
2023-02-16T00:03:34.560Z,-3.69
2023-02-16T00:06:37.687Z,-3.74
2023-02-16T00:09:41.056Z,-3.72
2023-02-16T00:13:02.289Z,-3.73
2023-02-16T00:16:06.248Z,-3.81
2023-02-16T00:19:16.948Z,-3.83
2023-02-16T00:22:22.192Z,-3.86
2023-02-16T00:25:25.017Z,-3.85
2023-02-16T00:28:27.961Z,-3.78
2023-02-16T00:31:33.168Z,-3.62
2023-02-16T00:34:40.186Z,-3.65
2023-02-16T00:37:43.705Z,-3.71
2023-02-16T00:40:47.234Z,-3.77
2023-02-16T00:43:54.931Z,-3.83
2023-02-16T00:47:01.854Z,-3.79
2023-02-16T00:50:21.659Z,-3.78
2023-02-16T00:53:26.828Z,-3.80
2023-02-16T00:56:29.840Z,-3.96
2023-02-16T00:59:33.084Z,-3.92
2023-02-16T01:02:38.921Z,-3.91
2023-02-16T01:05:42.054Z,-3.98
2023-02-16T01:09:07.065Z,-4.01
2023-02-16T01:12:17.063Z,-4.06
2023-02-16T01:15:24.665Z,-4.12
2023-02-16T01:18:30.800Z,-4.19
2023-02-16T01:21:33.830Z,-4.19
2023-02-16T01:24:39.743Z,-4.21
2023-02-16T01:27:43.850Z,-4.22
2023-02-16T01:30:49.870Z,-4.19
2023-02-16T01:33:57.654Z,-4.21
2023-02-16T01:37:00.568Z,-4.19
2023-02-16T01:40:04.010Z,-4.21
2023-02-16T01:43:28.939Z,-4.27
2023-02-16T01:46:52.251Z,-4.26
2023-02-16T01:49:58.316Z,-4.32
2023-02-16T01:53:15.576Z,-4.37
2023-02-16T01:57:05.207Z,-4.38
2023-02-16T02:00:15.526Z,-4.34
2023-02-16T02:03:45.294Z,-4.47
2023-02-16T02:06:50.886Z,-4.47
2023-02-16T02:10:05.919Z,-4.40
2023-02-16T02:13:19.956Z,-4.44
2023-02-16T02:16:35.466Z,-4.48
2023-02-16T02:20:06.872Z,-4.46
2023-02-16T02:23:33.956Z,-4.44
2023-02-16T02:27:01.118Z,-4.54
2023-02-16T02:30:32.027Z,-4.59
2023-02-16T02:33:43.575Z,-4.63
2023-02-16T02:37:14.808Z,-4.60
2023-02-16T02:41:10.139Z,-4.55
2023-02-16T02:44:50.493Z,-4.63
2023-02-16T02:48:08.427Z,-4.57
2023-02-16T02:51:28.637Z,-4.64
2023-02-16T02:55:19.754Z,-4.63
2023-02-16T02:58:59.774Z,-4.71
2023-02-16T03:02:38.227Z,-4.69
2023-02-16T03:06:20.158Z,-4.69
2023-02-16T03:10:19.131Z,-4.71
2023-02-16T03:13:42.871Z,-4.72
2023-02-16T03:17:18.318Z,-4.73
2023-02-16T03:21:13.930Z,-4.71
2023-02-16T03:25:10.038Z,-4.67
2023-02-16T03:29:06.364Z,-4.73
2023-02-16T03:32:43.577Z,-4.72
2023-02-16T03:36:18.638Z,-4.77
2023-02-16T03:40:12.897Z,-4.80
2023-02-16T03:43:29.954Z,-4.85
2023-02-16T03:46:49.685Z,-4.91
2023-02-16T03:50:07.640Z,-4.94
2023-02-16T03:53:44.829Z,-4.97
2023-02-16T03:57:02.076Z,-4.94
2023-02-16T04:00:27.825Z,-4.85
2023-02-16T04:03:44.971Z,-4.74
2023-02-16T04:07:03.365Z,-4.60
2023-02-16T04:10:38.882Z,-4.62
2023-02-16T04:13:56.884Z,-4.51
2023-02-16T04:17:30.980Z,-4.52
2023-02-16T04:21:08.546Z,-4.51
2023-02-16T04:24:42.899Z,-4.48
2023-02-16T04:28:02.343Z,-4.43
2023-02-16T04:31:37.071Z,-4.45
2023-02-16T04:35:06.912Z,-4.45
2023-02-16T04:38:43.140Z,-4.44
2023-02-16T04:42:20.094Z,-4.50
2023-02-16T04:45:56.012Z,-4.47
2023-02-16T04:49:25.817Z,-4.56
2023-02-16T04:52:59.750Z,-4.56
2023-02-16T04:56:34.545Z,-4.61
2023-02-16T05:00:02.270Z,-4.67
2023-02-16T05:03:36.737Z,-4.71
2023-02-16T05:07:15.661Z,-4.56
2023-02-16T05:11:11.198Z,-4.63
2023-02-16T05:14:50.043Z,-4.65
2023-02-16T05:18:25.245Z,-4.63
2023-02-16T05:22:04.283Z,-4.79
2023-02-16T05:25:21.829Z,-4.86
2023-02-16T05:28:50.942Z,-4.89
2023-02-16T05:32:24.980Z,-4.97
2023-02-16T05:35:57.121Z,-4.98
2023-02-16T05:39:37.082Z,-4.85
2023-02-16T05:43:12.456Z,-4.69
2023-02-16T05:46:46.738Z,-4.70
2023-02-16T05:50:13.695Z,-4.77
2023-02-16T05:53:50.313Z,-4.76
2023-02-16T05:57:26.304Z,-4.71
2023-02-16T06:01:00.785Z,-4.68
2023-02-16T06:04:36.175Z,-4.52
2023-02-16T06:07:57.078Z,-4.68
2023-02-16T06:11:38.908Z,-4.61
2023-02-16T06:15:14.379Z,-4.58
2023-02-16T06:18:51.775Z,-4.49
2023-02-16T06:22:26.198Z,-4.46
2023-02-16T06:26:05.870Z,-4.32
2023-02-16T06:29:39.798Z,-4.23
2023-02-16T06:33:06.814Z,-4.14
2023-02-16T06:36:47.242Z,-4.16
2023-02-16T06:40:20.474Z,-4.02
2023-02-16T06:43:55.885Z,-4.07
2023-02-16T06:47:30.387Z,-3.95
2023-02-16T06:50:57.707Z,-3.90
2023-02-16T06:54:29.581Z,-3.81
2023-02-16T06:57:59.827Z,-3.65
2023-02-16T07:01:25.852Z,-3.65
2023-02-16T07:04:50.067Z,-3.45
2023-02-16T07:08:25.302Z,-3.37
2023-02-16T07:11:59.798Z,-3.32
2023-02-16T07:15:37.050Z,-3.30
2023-02-16T07:19:14.693Z,-3.15
2023-02-16T07:22:51.684Z,-3.11
2023-02-16T07:26:13.944Z,-2.97
2023-02-16T07:29:40.793Z,-2.98
2023-02-16T07:33:18.188Z,-2.80
2023-02-16T07:36:53.687Z,-2.64
2023-02-16T07:40:29.371Z,-2.61
2023-02-16T07:44:03.784Z,-2.35
2023-02-16T07:47:39.156Z,-2.27
2023-02-16T07:51:20.175Z,-2.13
2023-02-16T07:54:53.966Z,-2.13
2023-02-16T07:58:32.074Z,-2.02
2023-02-16T08:02:07.512Z,-1.99
2023-02-16T08:05:45.492Z,-1.75
2023-02-16T08:09:21.076Z,-1.80
2023-02-16T08:12:59.540Z,-1.59
2023-02-16T08:16:35.738Z,-1.41
2023-02-16T08:20:04.928Z,-1.13
2023-02-16T08:23:39.072Z,-1.08
2023-02-16T08:34:44.045Z,-0.70
2023-02-16T08:38:12.969Z,-0.50
2023-02-16T08:41:50.668Z,-0.37
2023-02-16T08:45:42.493Z,-0.23
2023-02-16T08:52:36.079Z,0.16
2023-02-16T08:56:16.848Z,0.28
2023-02-16T09:00:10.608Z,0.67
2023-02-16T09:03:46.302Z,0.44
2023-02-16T09:07:35.199Z,0.57
2023-02-16T09:11:13.698Z,0.59
2023-02-16T09:14:49.317Z,0.60
2023-02-16T09:18:26.696Z,0.73
2023-02-16T09:25:48.522Z,0.88
2023-02-16T09:29:21.566Z,0.56
2023-02-16T09:33:01.312Z,0.82
2023-02-16T09:36:40.617Z,1.20
2023-02-16T09:40:14.883Z,1.46
2023-02-16T09:44:25.823Z,1.48
2023-02-16T09:48:02.048Z,1.81
2023-02-16T09:51:41.208Z,2.33
2023-02-16T09:55:18.527Z,2.43
2023-02-16T09:59:38.235Z,2.76
2023-02-16T10:03:43.217Z,2.96
2023-02-16T10:07:31.774Z,1.93
2023-02-16T10:11:35.654Z,1.96
2023-02-16T10:15:18.214Z,2.10
2023-02-16T10:18:57.337Z,2.46
2023-02-16T10:22:48.411Z,2.33
2023-02-16T10:26:47.564Z,2.71
2023-02-16T10:30:20.050Z,2.99
2023-02-16T10:34:18.242Z,3.05
2023-02-16T10:38:04.895Z,2.96
2023-02-16T10:41:49.851Z,2.90
2023-02-16T10:45:27.708Z,2.90
2023-02-16T10:49:03.212Z,3.14
2023-02-16T10:52:40.811Z,3.52
2023-02-16T10:56:33.881Z,3.64
2023-02-16T11:00:22.500Z,3.89
2023-02-16T11:04:05.337Z,3.93
2023-02-16T11:07:53.869Z,4.28
2023-02-16T11:15:17.062Z,4.51
2023-02-16T11:33:28.888Z,6.63
2023-02-16T11:37:26.948Z,7.36
2023-02-16T11:59:21.021Z,9.57
2023-02-16T12:03:19.129Z,9.35
2023-02-16T12:07:20.456Z,9.84
2023-02-16T12:11:31.257Z,8.92
2023-02-16T12:15:45.474Z,8.66
2023-02-16T12:49:29.608Z,8.11
2023-02-16T13:01:09.093Z,8.40
2023-02-16T13:05:30.414Z,8.50
2023-02-16T13:09:11.571Z,8.43
2023-02-16T13:13:45.779Z,8.08
2023-02-16T13:17:49.899Z,8.48
2023-02-16T13:21:29.048Z,8.61
2023-02-16T13:25:55.452Z,8.80
2023-02-16T13:30:00.701Z,8.67
2023-02-16T13:34:17.124Z,8.99
2023-02-16T13:38:36.990Z,9.20
2023-02-16T13:51:04.869Z,9.31
2023-02-16T13:54:40.028Z,8.82
2023-02-16T14:12:56.650Z,8.67
2023-02-16T14:20:31.888Z,8.66
2023-02-16T14:32:05.347Z,8.49
2023-02-16T14:36:08.169Z,8.67
2023-02-16T14:39:39.243Z,8.56
2023-02-16T14:43:41.942Z,8.03
2023-02-16T14:47:36.442Z,8.13
2023-02-16T14:51:53.687Z,7.80
2023-02-16T14:56:01.574Z,7.74
2023-02-16T15:00:01.846Z,7.67
2023-02-16T16:01:34.040Z,6.00
2023-02-16T16:05:33.251Z,5.82
2023-02-16T16:09:35.673Z,5.55
2023-02-16T16:21:05.044Z,4.84
2023-02-16T16:24:52.167Z,4.81
2023-02-16T16:28:37.945Z,4.61
2023-02-16T16:32:31.819Z,4.78
2023-02-16T16:36:48.936Z,4.51
2023-02-16T16:44:49.797Z,4.24
2023-02-16T16:48:55.299Z,4.37
2023-02-16T17:11:52.105Z,4.65
2023-02-16T18:41:37.226Z,0.90
2023-02-16T18:52:27.877Z,1.04
2023-02-16T18:56:13.841Z,1.34
2023-02-16T18:59:20.895Z,1.15
2023-02-16T19:02:27.535Z,1.24
2023-02-16T19:05:33.906Z,1.56
2023-02-16T19:08:37.668Z,1.26
2023-02-16T19:11:44.276Z,1.12
2023-02-16T19:14:50.135Z,1.02
2023-02-16T19:18:15.625Z,1.04
2023-02-16T19:21:26.277Z,1.16
2023-02-16T19:25:12.554Z,1.46
2023-02-16T19:28:37.360Z,2.50
2023-02-16T19:31:42.973Z,3.12
2023-02-16T19:34:49.222Z,3.27
2023-02-16T19:37:53.701Z,3.15
2023-02-16T19:40:59.548Z,3.13
2023-02-16T19:44:08.052Z,3.10
2023-02-16T19:47:12.030Z,2.78
2023-02-16T19:50:19.086Z,2.51
2023-02-16T19:53:24.308Z,2.26
2023-02-16T19:56:30.341Z,2.05
2023-02-16T19:59:35.044Z,1.93
2023-02-16T20:02:42.237Z,1.85
2023-02-16T20:05:45.806Z,1.79
2023-02-16T20:08:52.915Z,1.65
2023-02-16T20:11:56.596Z,1.75
2023-02-16T20:15:01.236Z,2.17
2023-02-16T20:18:12.747Z,2.55
2023-02-16T20:21:26.040Z,2.57
2023-02-16T20:24:35.661Z,2.72
2023-02-16T20:27:44.544Z,2.88
2023-02-16T20:30:55.325Z,2.89
2023-02-16T20:34:21.548Z,2.61
2023-02-16T20:37:55.032Z,2.27
2023-02-16T20:41:00.857Z,1.97
2023-02-16T20:44:05.351Z,1.71
2023-02-16T20:47:11.807Z,1.49
2023-02-16T20:50:16.076Z,1.29
2023-02-16T20:53:22.742Z,1.11
2023-02-16T20:56:28.196Z,0.99
2023-02-16T21:00:16.534Z,0.90
2023-02-16T21:03:41.310Z,0.86
2023-02-16T21:06:44.341Z,1.05
2023-02-16T21:09:50.312Z,1.09
2023-02-16T21:12:54.132Z,1.10
2023-02-16T21:15:58.620Z,1.10
2023-02-16T21:19:09.290Z,0.90
2023-02-16T21:22:42.752Z,0.70
2023-02-16T21:25:46.328Z,0.66
2023-02-16T21:28:51.047Z,0.56
2023-02-16T21:32:15.224Z,0.44
2023-02-16T21:35:18.821Z,0.51
2023-02-16T21:38:25.846Z,0.54
2023-02-16T21:41:30.664Z,0.52
2023-02-16T21:44:43.172Z,0.43
2023-02-16T21:48:06.227Z,0.58
2023-02-16T21:51:09.817Z,0.62
2023-02-16T21:54:49.994Z,0.61
2023-02-16T21:58:00.113Z,0.75
2023-02-16T22:01:03.219Z,0.86
2023-02-16T22:04:06.446Z,0.84
2023-02-16T22:07:31.563Z,1.00
2023-02-16T22:10:37.869Z,1.16
2023-02-16T22:13:40.885Z,1.18
2023-02-16T22:16:48.464Z,1.37
2023-02-16T22:19:54.680Z,1.46
2023-02-16T22:22:59.621Z,1.59
2023-02-16T22:26:03.115Z,1.64
2023-02-16T22:29:08.368Z,1.58
2023-02-16T22:32:14.363Z,1.57
2023-02-16T22:35:18.010Z,1.60
2023-02-16T22:38:20.983Z,1.36
2023-02-16T22:41:26.815Z,1.22
2023-02-16T22:44:33.879Z,1.02
2023-02-16T22:47:39.081Z,0.84
2023-02-16T22:50:45.229Z,0.77
2023-02-16T22:53:51.511Z,0.57
2023-02-16T22:56:54.368Z,0.50
2023-02-16T22:59:57.595Z,0.38
2023-02-16T23:03:00.212Z,0.25
2023-02-16T23:06:22.697Z,0.36
2023-02-16T23:09:27.818Z,0.21
2023-02-16T23:12:31.469Z,0.03
2023-02-16T23:15:41.425Z,-0.10
2023-02-16T23:18:45.721Z,-0.19
2023-02-16T23:21:58.196Z,-0.23
2023-02-16T23:25:23.222Z,-0.33
2023-02-16T23:28:31.450Z,-0.37
2023-02-16T23:31:36.682Z,-0.29
2023-02-16T23:34:41.082Z,-0.36
2023-02-16T23:37:49.771Z,-0.33
2023-02-16T23:41:04.066Z,-0.38
2023-02-16T23:44:08.511Z,-0.23
2023-02-16T23:47:13.112Z,-0.34
2023-02-16T23:50:16.595Z,-0.27
2023-02-16T23:53:19.881Z,-0.37
2023-02-16T23:56:46.929Z,-0.24
2023-02-16T23:59:54.619Z,-0.37
